sensor_id;sensor_type;location;lat;lon;timestamp;temperature;humidity
53876;DHT22;39789;53.216;5.624;2023-03-01T00:00:11;0.50;99.90
53876;DHT22;39789;53.216;5.624;2023-03-01T00:02:37;0.50;99.90
53876;DHT22;39789;53.216;5.624;2023-03-01T00:05:03;0.90;99.90
53876;DHT22;39789;53.216;5.624;2023-03-01T00:07:29;0.90;99.90
53876;DHT22;39789;53.216;5.624;2023-03-01T00:09:55;-0.10;99.90
53876;DHT22;39789;53.216;5.624;2023-03-01T00:12:21;0.50;99.90
53876;DHT22;39789;53.216;5.624;2023-03-01T00:14:47;0.10;99.90
53876;DHT22;39789;53.216;5.624;2023-03-01T00:17:12;0.10;99.90
53876;DHT22;39789;53.216;5.624;2023-03-01T00:19:38;-0.20;99.90
53876;DHT22;39789;53.216;5.624;2023-03-01T00:22:04;1.00;99.90
53876;DHT22;39789;53.216;5.624;2023-03-01T00:24:30;1.80;99.90
53876;DHT22;39789;53.216;5.624;2023-03-01T00:26:56;0.70;99.90
53876;DHT22;39789;53.216;5.624;2023-03-01T00:29:23;-0.50;99.90
53876;DHT22;39789;53.216;5.624;2023-03-01T00:31:49;0.90;99.90
53876;DHT22;39789;53.216;5.624;2023-03-01T00:34:14;-0.30;99.90
53876;DHT22;39789;53.216;5.624;2023-03-01T00:36:40;-0.10;99.90
53876;DHT22;39789;53.216;5.624;2023-03-01T00:39:11;-0.10;99.90
53876;DHT22;39789;53.216;5.624;2023-03-01T00:41:37;0.30;99.90
53876;DHT22;39789;53.216;5.624;2023-03-01T00:44:03;1.70;99.90
53876;DHT22;39789;53.216;5.624;2023-03-01T00:46:28;0.40;99.90
53876;DHT22;39789;53.216;5.624;2023-03-01T00:48:56;2.10;99.90
53876;DHT22;39789;53.216;5.624;2023-03-01T00:51:26;-0.40;99.90
53876;DHT22;39789;53.216;5.624;2023-03-01T00:53:56;0.20;99.90
53876;DHT22;39789;53.216;5.624;2023-03-01T00:56:23;0.30;99.90
53876;DHT22;39789;53.216;5.624;2023-03-01T00:58:49;0.40;99.90
53876;DHT22;39789;53.216;5.624;2023-03-01T01:01:21;-0.10;99.90
53876;DHT22;39789;53.216;5.624;2023-03-01T01:03:52;0.30;99.90
53876;DHT22;39789;53.216;5.624;2023-03-01T01:06:33;-0.50;99.90
53876;DHT22;39789;53.216;5.624;2023-03-01T01:09:00;0.10;99.90
53876;DHT22;39789;53.216;5.624;2023-03-01T01:11:28;0.20;99.90
53876;DHT22;39789;53.216;5.624;2023-03-01T01:13:54;0.00;99.90
53876;DHT22;39789;53.216;5.624;2023-03-01T01:16:23;0.40;99.90
53876;DHT22;39789;53.216;5.624;2023-03-01T01:18:51;1.80;99.90
53876;DHT22;39789;53.216;5.624;2023-03-01T01:21:19;0.50;99.90
53876;DHT22;39789;53.216;5.624;2023-03-01T01:24:03;1.60;99.90
53876;DHT22;39789;53.216;5.624;2023-03-01T01:26:43;1.90;99.90
53876;DHT22;39789;53.216;5.624;2023-03-01T01:31:41;-0.20;99.90
53876;DHT22;39789;53.216;5.624;2023-03-01T01:34:20;1.60;99.90
53876;DHT22;39789;53.216;5.624;2023-03-01T01:36:58;-0.90;99.90
53876;DHT22;39789;53.216;5.624;2023-03-01T01:41:54;-0.60;99.90
53876;DHT22;39789;53.216;5.624;2023-03-01T01:44:26;-0.90;99.90
53876;DHT22;39789;53.216;5.624;2023-03-01T01:47:00;-1.70;99.90
53876;DHT22;39789;53.216;5.624;2023-03-01T01:49:55;0.80;99.90
53876;DHT22;39789;53.216;5.624;2023-03-01T01:57:23;-0.80;99.90
53876;DHT22;39789;53.216;5.624;2023-03-01T01:59:57;0.70;99.90
53876;DHT22;39789;53.216;5.624;2023-03-01T02:02:27;-1.80;99.90
53876;DHT22;39789;53.216;5.624;2023-03-01T02:05:01;1.90;99.90
53876;DHT22;39789;53.216;5.624;2023-03-01T02:07:30;1.50;99.90
53876;DHT22;39789;53.216;5.624;2023-03-01T02:09:58;0.30;99.90
53876;DHT22;39789;53.216;5.624;2023-03-01T02:12:27;-1.10;99.90
53876;DHT22;39789;53.216;5.624;2023-03-01T02:17:19;-1.20;99.90
53876;DHT22;39789;53.216;5.624;2023-03-01T02:22:28;-1.70;99.90
53876;DHT22;39789;53.216;5.624;2023-03-01T02:30:39;-1.20;99.90
53876;DHT22;39789;53.216;5.624;2023-03-01T02:33:26;0.40;99.90
53876;DHT22;39789;53.216;5.624;2023-03-01T02:35:54;-0.90;99.90
53876;DHT22;39789;53.216;5.624;2023-03-01T02:38:21;0.50;99.90
53876;DHT22;39789;53.216;5.624;2023-03-01T02:40:53;-0.30;99.90
53876;DHT22;39789;53.216;5.624;2023-03-01T02:43:25;-1.70;99.90
53876;DHT22;39789;53.216;5.624;2023-03-01T02:45:58;-1.10;99.90
53876;DHT22;39789;53.216;5.624;2023-03-01T02:48:53;-1.10;99.90
53876;DHT22;39789;53.216;5.624;2023-03-01T02:55:28;0.70;99.90
53876;DHT22;39789;53.216;5.624;2023-03-01T03:06:01;0.80;99.90
53876;DHT22;39789;53.216;5.624;2023-03-01T06:21:03;-0.30;99.90
53876;DHT22;39789;53.216;5.624;2023-03-01T07:08:18;-1.00;99.90
53876;DHT22;39789;53.216;5.624;2023-03-01T07:10:44;-1.00;99.90
53876;DHT22;39789;53.216;5.624;2023-03-01T07:13:10;-0.90;99.90
53876;DHT22;39789;53.216;5.624;2023-03-01T07:15:35;-0.60;99.90
53876;DHT22;39789;53.216;5.624;2023-03-01T07:18:01;-0.40;99.90
53876;DHT22;39789;53.216;5.624;2023-03-01T07:20:27;-0.80;99.90
53876;DHT22;39789;53.216;5.624;2023-03-01T07:22:54;-1.00;99.90
53876;DHT22;39789;53.216;5.624;2023-03-01T07:25:20;-0.90;99.90
53876;DHT22;39789;53.216;5.624;2023-03-01T07:27:52;0.10;99.90
53876;DHT22;39789;53.216;5.624;2023-03-01T07:30:19;-0.80;99.90
53876;DHT22;39789;53.216;5.624;2023-03-01T07:32:45;-0.70;99.90
53876;DHT22;39789;53.216;5.624;2023-03-01T07:35:11;-0.60;99.90
53876;DHT22;39789;53.216;5.624;2023-03-01T07:37:36;-0.50;99.90
53876;DHT22;39789;53.216;5.624;2023-03-01T07:40:02;-0.50;99.90
53876;DHT22;39789;53.216;5.624;2023-03-01T07:42:28;-0.40;99.90
53876;DHT22;39789;53.216;5.624;2023-03-01T07:44:53;-0.20;99.90
53876;DHT22;39789;53.216;5.624;2023-03-01T07:49:54;0.10;99.90
53876;DHT22;39789;53.216;5.624;2023-03-01T07:52:20;-0.30;99.90
53876;DHT22;39789;53.216;5.624;2023-03-01T07:54:46;0.10;99.90
53876;DHT22;39789;53.216;5.624;2023-03-01T07:57:12;1.90;99.90
53876;DHT22;39789;53.216;5.624;2023-03-01T07:59:38;0.30;99.90
53876;DHT22;39789;53.216;5.624;2023-03-01T08:02:03;0.60;99.90
53876;DHT22;39789;53.216;5.624;2023-03-01T08:04:29;0.60;99.90
53876;DHT22;39789;53.216;5.624;2023-03-01T08:06:55;0.70;99.90
53876;DHT22;39789;53.216;5.624;2023-03-01T08:09:21;0.70;99.90
53876;DHT22;39789;53.216;5.624;2023-03-01T08:11:47;0.80;99.90
53876;DHT22;39789;53.216;5.624;2023-03-01T08:14:12;0.70;99.90
53876;DHT22;39789;53.216;5.624;2023-03-01T08:16:38;0.80;99.90
53876;DHT22;39789;53.216;5.624;2023-03-01T08:19:11;0.80;99.90
53876;DHT22;39789;53.216;5.624;2023-03-01T08:21:37;1.00;99.90
53876;DHT22;39789;53.216;5.624;2023-03-01T08:24:04;0.90;99.90
53876;DHT22;39789;53.216;5.624;2023-03-01T08:26:32;1.10;99.90
53876;DHT22;39789;53.216;5.624;2023-03-01T08:28:57;1.10;99.90
53876;DHT22;39789;53.216;5.624;2023-03-01T08:31:29;1.20;99.90
53876;DHT22;39789;53.216;5.624;2023-03-01T08:33:57;1.20;99.90
53876;DHT22;39789;53.216;5.624;2023-03-01T08:36:25;1.30;99.90
53876;DHT22;39789;53.216;5.624;2023-03-01T08:38:51;1.30;99.90
53876;DHT22;39789;53.216;5.624;2023-03-01T08:41:17;1.40;99.90
53876;DHT22;39789;53.216;5.624;2023-03-01T08:43:43;1.50;99.90
53876;DHT22;39789;53.216;5.624;2023-03-01T08:46:09;1.70;99.90
53876;DHT22;39789;53.216;5.624;2023-03-01T08:48:34;1.60;99.90
53876;DHT22;39789;53.216;5.624;2023-03-01T08:51:12;1.80;99.90
53876;DHT22;39789;53.216;5.624;2023-03-01T08:53:38;2.00;99.90
53876;DHT22;39789;53.216;5.624;2023-03-01T08:56:04;2.00;99.90
53876;DHT22;39789;53.216;5.624;2023-03-01T08:58:30;2.10;99.90
53876;DHT22;39789;53.216;5.624;2023-03-01T09:00:56;2.20;99.90
53876;DHT22;39789;53.216;5.624;2023-03-01T09:03:22;2.30;99.90
53876;DHT22;39789;53.216;5.624;2023-03-01T09:05:49;2.30;99.90
53876;DHT22;39789;53.216;5.624;2023-03-01T09:08:16;2.40;99.90
53876;DHT22;39789;53.216;5.624;2023-03-01T09:10:41;2.50;99.90
53876;DHT22;39789;53.216;5.624;2023-03-01T09:13:07;2.60;99.90
53876;DHT22;39789;53.216;5.624;2023-03-01T09:15:33;2.70;99.90
53876;DHT22;39789;53.216;5.624;2023-03-01T09:17:59;2.80;99.90
53876;DHT22;39789;53.216;5.624;2023-03-01T09:20:25;2.90;99.90
53876;DHT22;39789;53.216;5.624;2023-03-01T09:22:50;2.90;99.90
53876;DHT22;39789;53.216;5.624;2023-03-01T09:25:16;3.10;99.90
53876;DHT22;39789;53.216;5.624;2023-03-01T09:27:42;3.10;99.90
53876;DHT22;39789;53.216;5.624;2023-03-01T09:30:07;3.20;99.90
53876;DHT22;39789;53.216;5.624;2023-03-01T09:32:33;3.40;99.90
53876;DHT22;39789;53.216;5.624;2023-03-01T09:34:59;3.40;99.90
53876;DHT22;39789;53.216;5.624;2023-03-01T09:37:31;3.50;99.90
53876;DHT22;39789;53.216;5.624;2023-03-01T09:39:57;3.60;99.90
53876;DHT22;39789;53.216;5.624;2023-03-01T09:42:23;3.70;99.90
53876;DHT22;39789;53.216;5.624;2023-03-01T09:45:00;3.80;99.90
53876;DHT22;39789;53.216;5.624;2023-03-01T09:47:30;3.90;99.90
53876;DHT22;39789;53.216;5.624;2023-03-01T09:50:09;5.00;99.90
53876;DHT22;39789;53.216;5.624;2023-03-01T09:52:43;4.10;99.90
53876;DHT22;39789;53.216;5.624;2023-03-01T09:55:27;4.10;99.90
53876;DHT22;39789;53.216;5.624;2023-03-01T10:00:48;4.30;99.90
53876;DHT22;39789;53.216;5.624;2023-03-01T10:03:20;4.40;99.90
53876;DHT22;39789;53.216;5.624;2023-03-01T10:05:59;4.40;99.90
53876;DHT22;39789;53.216;5.624;2023-03-01T10:08:56;4.50;99.90
53876;DHT22;39789;53.216;5.624;2023-03-01T10:11:26;4.60;99.90
53876;DHT22;39789;53.216;5.624;2023-03-01T10:22:05;4.90;99.90
53876;DHT22;39789;53.216;5.624;2023-03-01T10:24:35;5.00;99.90
53876;DHT22;39789;53.216;5.624;2023-03-01T10:27:14;5.00;99.90
53876;DHT22;39789;53.216;5.624;2023-03-01T10:30:05;5.10;99.90
53876;DHT22;39789;53.216;5.624;2023-03-01T10:32:36;5.20;99.90
53876;DHT22;39789;53.216;5.624;2023-03-01T10:35:29;5.30;99.90
53876;DHT22;39789;53.216;5.624;2023-03-01T10:38:09;5.30;99.90
53876;DHT22;39789;53.216;5.624;2023-03-01T10:40:36;5.40;99.90
53876;DHT22;39789;53.216;5.624;2023-03-01T10:43:14;5.40;99.90
53876;DHT22;39789;53.216;5.624;2023-03-01T10:45:40;5.50;99.90
53876;DHT22;39789;53.216;5.624;2023-03-01T10:48:15;5.60;99.90
53876;DHT22;39789;53.216;5.624;2023-03-01T10:50:44;5.60;99.90
53876;DHT22;39789;53.216;5.624;2023-03-01T10:53:28;5.70;99.90
53876;DHT22;39789;53.216;5.624;2023-03-01T10:56:22;5.70;99.90
53876;DHT22;39789;53.216;5.624;2023-03-01T10:58:59;5.70;99.90
53876;DHT22;39789;53.216;5.624;2023-03-01T11:01:33;5.80;99.90
53876;DHT22;39789;53.216;5.624;2023-03-01T11:06:32;5.90;99.90
53876;DHT22;39789;53.216;5.624;2023-03-01T11:09:14;5.90;99.90
53876;DHT22;39789;53.216;5.624;2023-03-01T11:11:41;6.00;99.90
53876;DHT22;39789;53.216;5.624;2023-03-01T11:14:20;6.00;99.90
53876;DHT22;39789;53.216;5.624;2023-03-01T11:16:49;6.10;99.90
53876;DHT22;39789;53.216;5.624;2023-03-01T11:19:23;6.10;99.90
53876;DHT22;39789;53.216;5.624;2023-03-01T11:24:54;6.10;99.90
53876;DHT22;39789;53.216;5.624;2023-03-01T11:27:24;6.20;99.90
53876;DHT22;39789;53.216;5.624;2023-03-01T11:32:48;6.30;99.90
53876;DHT22;39789;53.216;5.624;2023-03-01T11:35:23;6.30;99.90
53876;DHT22;39789;53.216;5.624;2023-03-01T11:43:47;6.40;99.90
53876;DHT22;39789;53.216;5.624;2023-03-01T11:51:56;6.60;99.90
53876;DHT22;39789;53.216;5.624;2023-03-01T12:02:53;6.70;99.90
53876;DHT22;39789;53.216;5.624;2023-03-01T12:08:28;6.90;99.90
53876;DHT22;39789;53.216;5.624;2023-03-01T12:20:12;6.90;99.90
53876;DHT22;39789;53.216;5.624;2023-03-01T12:26:50;6.90;99.90
53876;DHT22;39789;53.216;5.624;2023-03-01T12:43:33;7.00;99.90
53876;DHT22;39789;53.216;5.624;2023-03-01T12:46:21;7.10;99.90
53876;DHT22;39789;53.216;5.624;2023-03-01T12:51:28;7.10;99.90
53876;DHT22;39789;53.216;5.624;2023-03-01T12:53:57;7.10;99.90
53876;DHT22;39789;53.216;5.624;2023-03-01T12:56:29;7.10;99.90
53876;DHT22;39789;53.216;5.624;2023-03-01T13:02:16;7.20;99.90
53876;DHT22;39789;53.216;5.624;2023-03-01T13:07:40;7.30;99.90
53876;DHT22;39789;53.216;5.624;2023-03-01T13:13:00;7.30;99.90
53876;DHT22;39789;53.216;5.624;2023-03-01T13:15:28;7.40;99.90
53876;DHT22;39789;53.216;5.624;2023-03-01T13:28:38;7.50;99.90
53876;DHT22;39789;53.216;5.624;2023-03-01T13:33:54;7.60;99.90
53876;DHT22;39789;53.216;5.624;2023-03-01T13:39:01;7.60;99.90
53876;DHT22;39789;53.216;5.624;2023-03-01T13:41:49;7.60;99.90
53876;DHT22;39789;53.216;5.624;2023-03-01T13:44:30;7.70;99.90
53876;DHT22;39789;53.216;5.624;2023-03-01T13:49:41;7.70;99.90
53876;DHT22;39789;53.216;5.624;2023-03-01T13:52:29;7.80;99.90
53876;DHT22;39789;53.216;5.624;2023-03-01T13:54:58;7.80;99.90
53876;DHT22;39789;53.216;5.624;2023-03-01T13:57:28;7.80;99.90
53876;DHT22;39789;53.216;5.624;2023-03-01T13:59:55;7.80;99.90
53876;DHT22;39789;53.216;5.624;2023-03-01T14:02:21;7.80;99.90
53876;DHT22;39789;53.216;5.624;2023-03-01T14:04:56;7.80;99.90
53876;DHT22;39789;53.216;5.624;2023-03-01T14:07:23;7.80;99.90
53876;DHT22;39789;53.216;5.624;2023-03-01T14:09:58;7.80;99.90
53876;DHT22;39789;53.216;5.624;2023-03-01T14:12:41;7.70;99.90
53876;DHT22;39789;53.216;5.624;2023-03-01T14:15:23;7.70;99.90
53876;DHT22;39789;53.216;5.624;2023-03-01T14:20:27;7.80;99.90
53876;DHT22;39789;53.216;5.624;2023-03-01T14:22:56;7.80;99.90
53876;DHT22;39789;53.216;5.624;2023-03-01T14:25:31;7.90;99.90
53876;DHT22;39789;53.216;5.624;2023-03-01T14:28:02;7.80;99.90
53876;DHT22;39789;53.216;5.624;2023-03-01T14:30:36;7.80;99.90
53876;DHT22;39789;53.216;5.624;2023-03-01T14:33:06;7.80;99.90
53876;DHT22;39789;53.216;5.624;2023-03-01T14:35:42;7.80;99.90
53876;DHT22;39789;53.216;5.624;2023-03-01T14:38:28;7.80;99.90
53876;DHT22;39789;53.216;5.624;2023-03-01T14:40:57;7.80;99.90
53876;DHT22;39789;53.216;5.624;2023-03-01T14:43:24;7.80;99.90
53876;DHT22;39789;53.216;5.624;2023-03-01T14:45:51;7.70;99.90
53876;DHT22;39789;53.216;5.624;2023-03-01T14:48:18;7.70;99.90
53876;DHT22;39789;53.216;5.624;2023-03-01T14:50:44;7.70;99.90
53876;DHT22;39789;53.216;5.624;2023-03-01T14:53:28;7.80;99.90
53876;DHT22;39789;53.216;5.624;2023-03-01T14:55:59;7.80;99.90
53876;DHT22;39789;53.216;5.624;2023-03-01T14:58:27;7.80;99.90
53876;DHT22;39789;53.216;5.624;2023-03-01T15:00:55;7.80;99.90
53876;DHT22;39789;53.216;5.624;2023-03-01T15:03:30;7.80;99.90
53876;DHT22;39789;53.216;5.624;2023-03-01T15:05:57;7.80;99.90
53876;DHT22;39789;53.216;5.624;2023-03-01T15:08:24;7.80;99.90
53876;DHT22;39789;53.216;5.624;2023-03-01T15:13:30;7.80;99.90
53876;DHT22;39789;53.216;5.624;2023-03-01T15:16:18;7.70;99.90
53876;DHT22;39789;53.216;5.624;2023-03-01T15:18:59;7.70;99.90
53876;DHT22;39789;53.216;5.624;2023-03-01T15:21:33;7.70;99.90
53876;DHT22;39789;53.216;5.624;2023-03-01T15:24:06;7.70;99.90
53876;DHT22;39789;53.216;5.624;2023-03-01T15:26:45;7.60;99.90
53876;DHT22;39789;53.216;5.624;2023-03-01T15:29:17;7.60;99.90
53876;DHT22;39789;53.216;5.624;2023-03-01T15:31:58;7.60;99.90
53876;DHT22;39789;53.216;5.624;2023-03-01T15:36:52;7.50;99.90
53876;DHT22;39789;53.216;5.624;2023-03-01T15:42:13;7.50;99.90
53876;DHT22;39789;53.216;5.624;2023-03-01T15:47:38;7.40;99.90
53876;DHT22;39789;53.216;5.624;2023-03-01T15:50:04;7.40;99.90
53876;DHT22;39789;53.216;5.624;2023-03-01T15:52:36;7.40;99.90
53876;DHT22;39789;53.216;5.624;2023-03-01T15:55:14;7.30;99.90
53876;DHT22;39789;53.216;5.624;2023-03-01T15:57:40;7.30;99.90
53876;DHT22;39789;53.216;5.624;2023-03-01T16:00:08;7.30;99.90
53876;DHT22;39789;53.216;5.624;2023-03-01T16:02:37;7.20;99.90
53876;DHT22;39789;53.216;5.624;2023-03-01T16:05:03;7.10;99.90
53876;DHT22;39789;53.216;5.624;2023-03-01T16:07:29;7.00;99.90
53876;DHT22;39789;53.216;5.624;2023-03-01T16:09:56;6.90;99.90
53876;DHT22;39789;53.216;5.624;2023-03-01T16:12:23;6.80;99.90
53876;DHT22;39789;53.216;5.624;2023-03-01T16:14:49;6.80;99.90
53876;DHT22;39789;53.216;5.624;2023-03-01T16:17:15;6.70;99.90
53876;DHT22;39789;53.216;5.624;2023-03-01T16:19:41;6.60;99.90
53876;DHT22;39789;53.216;5.624;2023-03-01T16:22:09;6.50;99.90
53876;DHT22;39789;53.216;5.624;2023-03-01T16:24:35;6.40;99.90
53876;DHT22;39789;53.216;5.624;2023-03-01T16:27:01;6.40;99.90
53876;DHT22;39789;53.216;5.624;2023-03-01T16:29:27;6.30;99.90
53876;DHT22;39789;53.216;5.624;2023-03-01T16:31:54;6.30;99.90
53876;DHT22;39789;53.216;5.624;2023-03-01T16:34:20;6.20;99.90
53876;DHT22;39789;53.216;5.624;2023-03-01T16:36:47;6.10;99.90
53876;DHT22;39789;53.216;5.624;2023-03-01T16:39:12;6.00;99.90
53876;DHT22;39789;53.216;5.624;2023-03-01T16:41:38;6.00;99.90
53876;DHT22;39789;53.216;5.624;2023-03-01T16:44:03;5.90;99.90
53876;DHT22;39789;53.216;5.624;2023-03-01T16:46:29;5.80;99.90
53876;DHT22;39789;53.216;5.624;2023-03-01T16:48:56;5.80;99.90
53876;DHT22;39789;53.216;5.624;2023-03-01T16:51:22;5.70;99.90
53876;DHT22;39789;53.216;5.624;2023-03-01T16:53:49;5.70;99.90
53876;DHT22;39789;53.216;5.624;2023-03-01T16:56:16;5.60;99.90
53876;DHT22;39789;53.216;5.624;2023-03-01T16:58:42;5.60;99.90
53876;DHT22;39789;53.216;5.624;2023-03-01T17:01:10;5.40;99.90
53876;DHT22;39789;53.216;5.624;2023-03-01T17:03:37;5.40;99.90
53876;DHT22;39789;53.216;5.624;2023-03-01T17:06:11;5.10;99.90
53876;DHT22;39789;53.216;5.624;2023-03-01T17:08:37;5.30;99.90
53876;DHT22;39789;53.216;5.624;2023-03-01T17:11:05;6.30;99.90
53876;DHT22;39789;53.216;5.624;2023-03-01T17:13:31;5.10;99.90
53876;DHT22;39789;53.216;5.624;2023-03-01T17:15:57;5.10;99.90
53876;DHT22;39789;53.216;5.624;2023-03-01T17:18:22;5.00;99.90
53876;DHT22;39789;53.216;5.624;2023-03-01T17:20:49;4.90;99.90
53876;DHT22;39789;53.216;5.624;2023-03-01T17:23:15;4.90;99.90
53876;DHT22;39789;53.216;5.624;2023-03-01T17:25:46;4.80;99.90
53876;DHT22;39789;53.216;5.624;2023-03-01T17:28:14;4.60;99.90
53876;DHT22;39789;53.216;5.624;2023-03-01T17:30:44;4.60;99.90
53876;DHT22;39789;53.216;5.624;2023-03-01T17:33:12;4.60;99.90
53876;DHT22;39789;53.216;5.624;2023-03-01T17:35:38;4.50;99.90
53876;DHT22;39789;53.216;5.624;2023-03-01T17:38:05;4.50;99.90
53876;DHT22;39789;53.216;5.624;2023-03-01T17:40:31;4.40;99.90
53876;DHT22;39789;53.216;5.624;2023-03-01T17:42:57;4.10;99.90
53876;DHT22;39789;53.216;5.624;2023-03-01T17:45:22;5.60;99.90
53876;DHT22;39789;53.216;5.624;2023-03-01T17:47:50;4.20;99.90
53876;DHT22;39789;53.216;5.624;2023-03-01T17:50:16;3.90;99.90
53876;DHT22;39789;53.216;5.624;2023-03-01T17:52:41;4.10;99.90
53876;DHT22;39789;53.216;5.624;2023-03-01T17:55:08;4.00;99.90
53876;DHT22;39789;53.216;5.624;2023-03-01T17:57:34;4.00;99.90
53876;DHT22;39789;53.216;5.624;2023-03-01T18:00:04;4.00;99.90
53876;DHT22;39789;53.216;5.624;2023-03-01T18:02:30;4.10;99.90
53876;DHT22;39789;53.216;5.624;2023-03-01T18:04:58;4.00;99.90
53876;DHT22;39789;53.216;5.624;2023-03-01T18:07:27;4.10;99.90
53876;DHT22;39789;53.216;5.624;2023-03-01T18:09:54;4.10;99.90
53876;DHT22;39789;53.216;5.624;2023-03-01T18:12:19;4.10;99.90
53876;DHT22;39789;53.216;5.624;2023-03-01T18:14:45;4.10;99.90
53876;DHT22;39789;53.216;5.624;2023-03-01T18:17:12;4.10;99.90
53876;DHT22;39789;53.216;5.624;2023-03-01T18:19:39;4.10;99.90
53876;DHT22;39789;53.216;5.624;2023-03-01T18:22:07;4.00;99.90
53876;DHT22;39789;53.216;5.624;2023-03-01T18:24:34;3.90;99.90
53876;DHT22;39789;53.216;5.624;2023-03-01T18:26:59;3.90;99.90
53876;DHT22;39789;53.216;5.624;2023-03-01T18:29:25;3.80;99.90
53876;DHT22;39789;53.216;5.624;2023-03-01T18:31:51;3.80;99.90
53876;DHT22;39789;53.216;5.624;2023-03-01T18:34:16;3.70;99.90
53876;DHT22;39789;53.216;5.624;2023-03-01T18:36:42;3.70;99.90
53876;DHT22;39789;53.216;5.624;2023-03-01T18:39:07;3.70;99.90
53876;DHT22;39789;53.216;5.624;2023-03-01T18:41:34;3.60;99.90
53876;DHT22;39789;53.216;5.624;2023-03-01T18:44:01;3.60;99.90
53876;DHT22;39789;53.216;5.624;2023-03-01T18:46:27;3.60;99.90
53876;DHT22;39789;53.216;5.624;2023-03-01T18:48:53;3.60;99.90
53876;DHT22;39789;53.216;5.624;2023-03-01T18:51:29;3.60;99.90
53876;DHT22;39789;53.216;5.624;2023-03-01T18:53:56;3.60;99.90
53876;DHT22;39789;53.216;5.624;2023-03-01T18:56:23;3.70;99.90
53876;DHT22;39789;53.216;5.624;2023-03-01T18:58:49;3.70;99.90
53876;DHT22;39789;53.216;5.624;2023-03-01T19:01:19;3.70;99.90
53876;DHT22;39789;53.216;5.624;2023-03-01T19:03:46;3.70;99.90
53876;DHT22;39789;53.216;5.624;2023-03-01T19:06:11;3.60;99.90
53876;DHT22;39789;53.216;5.624;2023-03-01T19:08:37;3.60;99.90
53876;DHT22;39789;53.216;5.624;2023-03-01T19:11:05;3.60;99.90
53876;DHT22;39789;53.216;5.624;2023-03-01T19:13:33;3.60;99.90
53876;DHT22;39789;53.216;5.624;2023-03-01T19:16:08;3.60;99.90
53876;DHT22;39789;53.216;5.624;2023-03-01T19:18:35;3.60;99.90
53876;DHT22;39789;53.216;5.624;2023-03-01T19:21:02;3.60;99.90
53876;DHT22;39789;53.216;5.624;2023-03-01T19:23:29;3.50;99.90
53876;DHT22;39789;53.216;5.624;2023-03-01T19:26:00;3.50;99.90
53876;DHT22;39789;53.216;5.624;2023-03-01T19:28:26;3.50;99.90
53876;DHT22;39789;53.216;5.624;2023-03-01T19:30:59;3.50;99.90
53876;DHT22;39789;53.216;5.624;2023-03-01T19:33:30;3.80;99.90
53876;DHT22;39789;53.216;5.624;2023-03-01T19:35:56;3.40;99.90
53876;DHT22;39789;53.216;5.624;2023-03-01T19:38:22;3.40;99.90
53876;DHT22;39789;53.216;5.624;2023-03-01T19:40:48;3.40;99.90
53876;DHT22;39789;53.216;5.624;2023-03-01T19:43:14;3.30;99.90
53876;DHT22;39789;53.216;5.624;2023-03-01T19:45:39;3.30;99.90
53876;DHT22;39789;53.216;5.624;2023-03-01T19:48:05;3.30;99.90
53876;DHT22;39789;53.216;5.624;2023-03-01T19:50:30;3.30;99.90
53876;DHT22;39789;53.216;5.624;2023-03-01T19:52:56;3.30;99.90
53876;DHT22;39789;53.216;5.624;2023-03-01T19:55:22;3.40;99.90
53876;DHT22;39789;53.216;5.624;2023-03-01T19:57:47;2.60;99.90
53876;DHT22;39789;53.216;5.624;2023-03-01T20:00:14;3.30;99.90
53876;DHT22;39789;53.216;5.624;2023-03-01T20:02:39;3.40;99.90
53876;DHT22;39789;53.216;5.624;2023-03-01T20:05:05;3.10;99.90
53876;DHT22;39789;53.216;5.624;2023-03-01T20:07:31;3.50;99.90
53876;DHT22;39789;53.216;5.624;2023-03-01T20:09:56;3.50;99.90
53876;DHT22;39789;53.216;5.624;2023-03-01T20:12:22;3.50;99.90
53876;DHT22;39789;53.216;5.624;2023-03-01T20:14:48;3.60;99.90
53876;DHT22;39789;53.216;5.624;2023-03-01T20:17:15;3.60;99.90
53876;DHT22;39789;53.216;5.624;2023-03-01T20:19:41;3.60;99.90
53876;DHT22;39789;53.216;5.624;2023-03-01T20:22:07;3.60;99.90
53876;DHT22;39789;53.216;5.624;2023-03-01T20:24:32;3.60;99.90
53876;DHT22;39789;53.216;5.624;2023-03-01T20:26:59;3.60;99.90
53876;DHT22;39789;53.216;5.624;2023-03-01T20:29:25;3.70;99.90
53876;DHT22;39789;53.216;5.624;2023-03-01T20:31:51;3.60;99.90
53876;DHT22;39789;53.216;5.624;2023-03-01T20:34:16;3.70;99.90
53876;DHT22;39789;53.216;5.624;2023-03-01T20:36:42;3.70;99.90
53876;DHT22;39789;53.216;5.624;2023-03-01T20:39:09;3.70;99.90
53876;DHT22;39789;53.216;5.624;2023-03-01T20:41:36;3.80;99.90
53876;DHT22;39789;53.216;5.624;2023-03-01T20:44:02;3.80;99.90
53876;DHT22;39789;53.216;5.624;2023-03-01T20:46:31;3.80;99.90
53876;DHT22;39789;53.216;5.624;2023-03-01T20:48:58;3.80;99.90
53876;DHT22;39789;53.216;5.624;2023-03-01T20:51:23;3.80;99.90
53876;DHT22;39789;53.216;5.624;2023-03-01T20:53:49;3.80;99.90
53876;DHT22;39789;53.216;5.624;2023-03-01T20:56:16;3.80;99.90
53876;DHT22;39789;53.216;5.624;2023-03-01T20:58:42;3.80;99.90
53876;DHT22;39789;53.216;5.624;2023-03-01T21:01:10;3.80;99.90
53876;DHT22;39789;53.216;5.624;2023-03-01T21:03:36;3.80;99.90
53876;DHT22;39789;53.216;5.624;2023-03-01T21:06:03;3.80;99.90
53876;DHT22;39789;53.216;5.624;2023-03-01T21:08:30;3.80;99.90
53876;DHT22;39789;53.216;5.624;2023-03-01T21:10:57;3.70;99.90
53876;DHT22;39789;53.216;5.624;2023-03-01T21:13:24;3.70;99.90
53876;DHT22;39789;53.216;5.624;2023-03-01T21:15:57;4.50;99.90
53876;DHT22;39789;53.216;5.624;2023-03-01T21:18:24;3.60;99.90
53876;DHT22;39789;53.216;5.624;2023-03-01T21:21:00;3.60;99.90
53876;DHT22;39789;53.216;5.624;2023-03-01T21:23:28;3.60;99.90
53876;DHT22;39789;53.216;5.624;2023-03-01T21:26:21;3.60;99.90
53876;DHT22;39789;53.216;5.624;2023-03-01T21:28:53;3.60;99.90
53876;DHT22;39789;53.216;5.624;2023-03-01T21:31:22;3.60;99.90
53876;DHT22;39789;53.216;5.624;2023-03-01T21:33:50;3.60;99.90
53876;DHT22;39789;53.216;5.624;2023-03-01T21:36:17;3.60;99.90
53876;DHT22;39789;53.216;5.624;2023-03-01T21:38:44;3.60;99.90
53876;DHT22;39789;53.216;5.624;2023-03-01T21:41:13;3.60;99.90
53876;DHT22;39789;53.216;5.624;2023-03-01T21:43:41;3.60;99.90
53876;DHT22;39789;53.216;5.624;2023-03-01T21:46:09;3.60;99.90
53876;DHT22;39789;53.216;5.624;2023-03-01T21:48:37;3.60;99.90
53876;DHT22;39789;53.216;5.624;2023-03-01T21:51:03;3.60;99.90
53876;DHT22;39789;53.216;5.624;2023-03-01T21:53:31;3.60;99.90
53876;DHT22;39789;53.216;5.624;2023-03-01T21:55:57;3.60;99.90
53876;DHT22;39789;53.216;5.624;2023-03-01T21:58:22;3.60;99.90
53876;DHT22;39789;53.216;5.624;2023-03-01T22:00:49;3.60;99.90
53876;DHT22;39789;53.216;5.624;2023-03-01T22:03:15;3.50;99.90
53876;DHT22;39789;53.216;5.624;2023-03-01T22:05:41;3.60;99.90
53876;DHT22;39789;53.216;5.624;2023-03-01T22:08:07;3.60;99.90
53876;DHT22;39789;53.216;5.624;2023-03-01T22:10:33;3.50;99.90
53876;DHT22;39789;53.216;5.624;2023-03-01T22:12:59;3.50;99.90
53876;DHT22;39789;53.216;5.624;2023-03-01T22:15:26;3.50;99.90
53876;DHT22;39789;53.216;5.624;2023-03-01T22:17:52;3.50;99.90
53876;DHT22;39789;53.216;5.624;2023-03-01T22:20:19;3.50;99.90
53876;DHT22;39789;53.216;5.624;2023-03-01T22:22:45;3.50;99.90